createdAt,value
2022-10-12T00:00:50.188Z,7.50
2022-10-12T00:03:19.069Z,7.50
2022-10-12T00:05:48.029Z,7.50
2022-10-12T00:08:16.746Z,7.60
2022-10-12T00:10:45.932Z,7.60
2022-10-12T00:13:16.012Z,7.50
2022-10-12T00:15:44.628Z,7.40
2022-10-12T00:18:13.282Z,7.40
2022-10-12T00:20:42.016Z,7.40
2022-10-12T00:23:11.596Z,7.40
2022-10-12T00:25:40.783Z,7.40
2022-10-12T00:28:09.859Z,7.40
2022-10-12T00:30:42.598Z,7.40
2022-10-12T00:33:11.223Z,7.40
2022-10-12T00:35:40.082Z,7.30
2022-10-12T00:38:08.744Z,7.40
2022-10-12T00:40:37.449Z,7.30
2022-10-12T00:43:06.070Z,7.30
2022-10-12T00:45:34.893Z,7.30
2022-10-12T00:48:05.149Z,7.30
2022-10-12T00:50:36.605Z,7.10
2022-10-12T00:53:07.958Z,7.00
2022-10-12T00:55:40.026Z,6.90
2022-10-12T00:58:10.078Z,6.90
2022-10-12T01:00:40.053Z,6.90
2022-10-12T01:03:12.651Z,6.90
2022-10-12T01:05:42.094Z,6.90
2022-10-12T01:08:10.810Z,6.90
2022-10-12T01:10:39.427Z,6.90
2022-10-12T01:13:08.556Z,6.90
2022-10-12T01:15:44.273Z,6.90
2022-10-12T01:18:19.814Z,6.90
2022-10-12T01:21:03.253Z,6.80
2022-10-12T01:24:04.173Z,6.80
2022-10-12T01:27:07.158Z,6.70
2022-10-12T01:30:04.978Z,6.70
2022-10-12T01:32:39.293Z,6.70
2022-10-12T01:35:11.668Z,6.70
2022-10-12T01:37:50.229Z,6.70
2022-10-12T01:40:25.488Z,6.70
2022-10-12T01:42:56.392Z,6.70
2022-10-12T01:45:25.194Z,6.60
2022-10-12T01:47:56.700Z,6.60
2022-10-12T01:50:33.178Z,6.50
2022-10-12T01:53:16.195Z,6.50
2022-10-12T01:55:52.775Z,6.50
2022-10-12T01:58:42.043Z,6.50
2022-10-12T02:01:22.027Z,6.40
2022-10-12T02:03:59.562Z,6.40
2022-10-12T02:06:34.219Z,6.40
2022-10-12T02:09:08.884Z,6.40
2022-10-12T02:11:42.106Z,6.30
2022-10-12T02:14:16.385Z,6.20
2022-10-12T02:16:51.171Z,6.30
2022-10-12T02:19:25.964Z,6.30
2022-10-12T02:21:57.440Z,6.30
2022-10-12T02:24:26.054Z,6.40
2022-10-12T02:26:55.788Z,6.30
2022-10-12T02:29:29.909Z,6.40
2022-10-12T02:32:03.820Z,6.30
2022-10-12T02:34:37.679Z,6.30
2022-10-12T02:37:10.916Z,6.30
2022-10-12T02:39:45.015Z,6.30
2022-10-12T02:42:19.049Z,6.30
2022-10-12T02:44:49.185Z,6.20
2022-10-12T02:47:20.106Z,6.20
2022-10-12T02:49:52.075Z,6.20
2022-10-12T02:52:20.760Z,6.20
2022-10-12T02:54:49.438Z,6.10
2022-10-12T02:57:18.475Z,6.10
2022-10-12T02:59:47.128Z,6.20
2022-10-12T03:02:15.742Z,6.20
2022-10-12T03:04:45.017Z,6.20
2022-10-12T03:07:15.094Z,6.20
2022-10-12T03:09:43.690Z,6.30
2022-10-12T03:12:12.336Z,6.40
2022-10-12T03:14:40.960Z,6.40
2022-10-12T03:17:12.124Z,6.40
2022-10-12T03:19:40.877Z,6.40
2022-10-12T03:22:09.511Z,6.40
2022-10-12T03:24:39.523Z,6.40
2022-10-12T03:27:08.188Z,6.40
2022-10-12T03:29:36.804Z,6.40
2022-10-12T03:32:05.754Z,6.40
2022-10-12T03:34:34.408Z,6.40
2022-10-12T03:37:03.006Z,6.40
2022-10-12T03:39:31.662Z,6.40
2022-10-12T03:42:01.713Z,6.40
2022-10-12T03:44:30.370Z,6.30
2022-10-12T03:46:59.063Z,6.30
2022-10-12T03:49:27.739Z,6.30
2022-10-12T03:51:56.407Z,6.30
2022-10-12T03:54:25.081Z,6.40
2022-10-12T03:56:53.761Z,6.40
2022-10-12T03:59:23.833Z,6.40
2022-10-12T04:01:52.713Z,6.40
2022-10-12T04:04:21.413Z,6.30
2022-10-12T04:06:50.007Z,6.30
2022-10-12T04:09:18.636Z,6.30
2022-10-12T04:11:47.282Z,6.30
2022-10-12T04:14:15.970Z,6.30
2022-10-12T04:16:45.983Z,6.20
2022-10-12T04:19:14.924Z,6.20
2022-10-12T04:21:43.592Z,6.20
2022-10-12T04:24:12.142Z,6.20
2022-10-12T04:26:40.723Z,6.10
2022-10-12T04:29:09.376Z,6.00
2022-10-12T04:31:38.033Z,6.00
2022-10-12T04:34:08.268Z,5.80
2022-10-12T04:36:36.991Z,5.80
2022-10-12T04:39:05.734Z,5.90
2022-10-12T04:41:34.402Z,5.90
2022-10-12T04:44:03.181Z,5.90
2022-10-12T04:46:31.816Z,5.90
2022-10-12T04:49:00.549Z,5.90
2022-10-12T04:51:30.589Z,5.90
2022-10-12T04:53:59.222Z,5.90
2022-10-12T04:56:27.918Z,5.90
2022-10-12T04:58:56.741Z,5.80
2022-10-12T05:01:25.508Z,5.80
2022-10-12T05:03:54.219Z,5.80
2022-10-12T05:06:22.890Z,5.70
2022-10-12T05:08:52.845Z,5.60
2022-10-12T05:11:21.527Z,5.60
2022-10-12T05:13:50.154Z,5.70
2022-10-12T05:16:18.764Z,5.70
2022-10-12T05:18:47.341Z,5.70
2022-10-12T05:21:15.988Z,5.60
2022-10-12T05:23:44.726Z,5.60
2022-10-12T05:26:14.900Z,5.50
2022-10-12T05:28:43.527Z,5.60
2022-10-12T05:31:12.439Z,5.50
2022-10-12T05:33:41.032Z,5.50
2022-10-12T05:36:10.544Z,5.50
2022-10-12T05:38:39.333Z,5.60
2022-10-12T05:41:07.986Z,5.60
2022-10-12T05:43:37.987Z,5.60
2022-10-12T05:46:08.260Z,5.70
2022-10-12T05:48:42.134Z,5.70
2022-10-12T05:51:10.835Z,5.70
2022-10-12T05:53:39.529Z,5.80
2022-10-12T05:56:08.969Z,5.90
2022-10-12T05:58:39.192Z,5.90
2022-10-12T06:01:09.973Z,6.00
2022-10-12T06:03:39.026Z,6.00
2022-10-12T06:06:09.042Z,6.10
2022-10-12T06:08:37.910Z,6.10
2022-10-12T06:11:07.371Z,6.20
2022-10-12T06:13:36.122Z,6.30
2022-10-12T06:16:07.028Z,6.30
2022-10-12T06:18:36.065Z,6.40
2022-10-12T06:23:54.508Z,6.60
2022-10-12T06:26:23.875Z,6.60
2022-10-12T06:28:52.627Z,6.70
2022-10-12T06:31:23.108Z,6.80
2022-10-12T06:33:52.571Z,6.80
2022-10-12T06:36:21.736Z,6.90
2022-10-12T06:38:50.406Z,7.00
2022-10-12T06:41:19.284Z,7.20
2022-10-12T06:43:47.986Z,7.20
2022-10-12T06:46:16.892Z,7.30
2022-10-12T06:48:47.092Z,7.40
2022-10-12T06:51:16.521Z,7.40
2022-10-12T06:53:45.600Z,7.50
2022-10-12T06:56:14.483Z,7.70
2022-10-12T06:58:43.126Z,7.90
2022-10-12T07:01:12.208Z,8.00
2022-10-12T07:03:40.871Z,8.20
2022-10-12T07:06:13.296Z,8.60
2022-10-12T07:08:43.161Z,9.10
2022-10-12T07:11:13.420Z,9.90
2022-10-12T07:13:42.160Z,11.10
2022-10-12T07:16:10.832Z,12.50
2022-10-12T07:18:40.264Z,13.90
2022-10-12T07:21:10.494Z,14.90
2022-10-12T07:23:43.609Z,16.00
2022-10-12T07:26:15.929Z,17.00
2022-10-12T07:28:44.899Z,17.60
2022-10-12T07:31:13.601Z,18.30
2022-10-12T07:33:42.227Z,19.00
2022-10-12T07:36:15.652Z,19.50
2022-10-12T07:38:49.023Z,20.40
2022-10-12T07:41:18.020Z,20.80
2022-10-12T07:43:47.225Z,20.90
2022-10-12T07:46:16.128Z,21.90
2022-10-12T07:48:49.960Z,22.40
2022-10-12T07:51:20.665Z,22.40
2022-10-12T07:53:50.778Z,22.50
2022-10-12T07:56:19.551Z,22.60
2022-10-12T07:58:51.392Z,22.30
2022-10-12T08:01:24.703Z,22.50
2022-10-12T08:04:00.311Z,23.10
2022-10-12T08:06:33.883Z,23.40
2022-10-12T08:09:04.776Z,23.50
2022-10-12T08:11:33.748Z,23.80
2022-10-12T08:14:03.129Z,24.10
2022-10-12T08:16:31.854Z,24.40
2022-10-12T08:19:02.054Z,24.80
2022-10-12T08:21:32.285Z,25.30
2022-10-12T08:24:01.467Z,25.20
2022-10-12T08:26:30.884Z,25.60
2022-10-12T08:28:59.743Z,25.50
2022-10-12T08:31:28.814Z,25.90
2022-10-12T08:33:59.015Z,27.10
2022-10-12T08:36:28.501Z,28.10
2022-10-12T08:38:59.956Z,28.00
2022-10-12T08:41:41.249Z,28.40
2022-10-12T08:44:28.259Z,27.70
2022-10-12T08:46:59.667Z,27.50
2022-10-12T08:49:32.698Z,28.10
2022-10-12T08:52:04.969Z,28.40
2022-10-12T08:54:40.361Z,28.90
2022-10-12T08:57:14.963Z,29.50
2022-10-12T08:59:43.637Z,30.50
2022-10-12T09:02:37.407Z,30.40
2022-10-12T09:05:10.420Z,30.50
2022-10-12T09:07:45.332Z,31.10
2022-10-12T09:10:30.471Z,31.40
2022-10-12T09:13:07.566Z,31.30
2022-10-12T09:15:40.711Z,31.40
2022-10-12T09:18:19.870Z,31.50
2022-10-12T09:20:50.647Z,31.50
2022-10-12T09:23:32.218Z,31.10
2022-10-12T09:26:10.718Z,32.00
2022-10-12T09:28:45.454Z,32.50
2022-10-12T09:31:33.508Z,32.80
2022-10-12T09:34:06.872Z,32.60
2022-10-12T09:36:39.009Z,33.30
2022-10-12T09:39:14.428Z,33.70
2022-10-12T09:41:46.902Z,33.90
2022-10-12T09:44:36.563Z,34.00
2022-10-12T09:47:08.058Z,33.90
2022-10-12T09:49:45.022Z,34.40
2022-10-12T09:52:15.586Z,34.90
2022-10-12T09:54:49.612Z,35.20
2022-10-12T09:57:27.066Z,34.70
2022-10-12T09:59:56.859Z,34.10
2022-10-12T10:02:26.812Z,34.60
2022-10-12T10:04:56.582Z,34.80
2022-10-12T10:07:28.963Z,35.20
2022-10-12T10:10:18.544Z,34.60
2022-10-12T10:12:54.758Z,35.20
2022-10-12T10:15:28.192Z,35.20
2022-10-12T10:18:00.903Z,35.80
2022-10-12T10:20:34.367Z,35.50
2022-10-12T10:23:05.926Z,36.00
2022-10-12T10:25:35.658Z,35.70
2022-10-12T10:28:31.703Z,36.20
2022-10-12T10:31:03.766Z,36.30
2022-10-12T10:33:34.473Z,35.90
2022-10-12T10:36:06.884Z,35.40
2022-10-12T10:38:53.322Z,34.30
2022-10-12T10:41:22.315Z,34.90
2022-10-12T10:43:52.617Z,34.90
2022-10-12T10:46:25.637Z,35.60
2022-10-12T10:48:59.395Z,35.40
2022-10-12T10:51:48.113Z,35.60
2022-10-12T10:54:18.727Z,36.50
2022-10-12T10:56:48.304Z,37.00
2022-10-12T10:59:22.524Z,37.00
2022-10-12T11:01:55.710Z,37.10
2022-10-12T11:04:28.579Z,37.50
2022-10-12T11:07:01.061Z,37.70
2022-10-12T11:09:31.789Z,38.50
2022-10-12T11:12:04.559Z,39.00
2022-10-12T11:14:38.544Z,39.30
2022-10-12T11:17:11.995Z,39.50
2022-10-12T11:19:46.340Z,38.30
2022-10-12T11:22:20.997Z,37.80
2022-10-12T11:24:54.997Z,37.30
2022-10-12T11:27:29.615Z,37.80
2022-10-12T11:30:11.879Z,37.20
2022-10-12T11:32:44.892Z,36.40
2022-10-12T11:35:18.221Z,36.80
2022-10-12T11:37:50.895Z,37.20
2022-10-12T11:40:31.080Z,37.00
2022-10-12T11:43:14.859Z,37.20
2022-10-12T11:45:48.147Z,35.70
2022-10-12T11:48:26.257Z,32.00
2022-10-12T11:51:03.940Z,30.20
2022-10-12T11:53:41.014Z,28.60
2022-10-12T11:56:16.147Z,28.00
2022-10-12T11:59:00.711Z,29.10
2022-10-12T12:01:48.548Z,30.10
2022-10-12T12:04:41.328Z,30.80
2022-10-12T12:07:44.492Z,31.10
2022-10-12T12:10:55.332Z,32.00
2022-10-12T12:13:27.354Z,33.20
2022-10-12T12:16:24.176Z,34.20
2022-10-12T12:19:18.429Z,34.60
2022-10-12T12:22:21.860Z,34.40
2022-10-12T12:24:57.896Z,33.30
2022-10-12T12:27:36.375Z,33.00
2022-10-12T12:30:21.376Z,33.10
2022-10-12T12:32:52.275Z,33.70
2022-10-12T12:35:29.532Z,34.60
2022-10-12T12:38:19.208Z,35.10
2022-10-12T12:41:00.894Z,36.10
2022-10-12T12:43:55.142Z,36.60
2022-10-12T12:46:25.866Z,35.90
2022-10-12T12:49:03.355Z,34.70
2022-10-12T12:51:55.317Z,34.20
2022-10-12T12:54:25.305Z,34.20
2022-10-12T12:57:14.902Z,34.10
2022-10-12T13:00:21.740Z,34.30
2022-10-12T13:03:12.786Z,34.10
2022-10-12T13:06:11.525Z,34.30
2022-10-12T13:08:56.424Z,34.40
2022-10-12T13:11:47.916Z,32.90
2022-10-12T13:14:31.402Z,31.90
2022-10-12T13:17:32.995Z,32.40
2022-10-12T13:20:04.297Z,33.00
2022-10-12T13:22:35.348Z,33.50
2022-10-12T13:25:08.425Z,34.00
2022-10-12T13:27:43.125Z,33.70
2022-10-12T13:30:21.085Z,34.20
2022-10-12T13:32:55.978Z,34.20
2022-10-12T13:35:33.339Z,34.20
2022-10-12T13:38:04.900Z,34.10
2022-10-12T13:40:40.182Z,33.70
2022-10-12T13:43:40.055Z,33.70
2022-10-12T13:46:09.181Z,33.50
2022-10-12T13:48:58.951Z,33.30
2022-10-12T13:51:29.148Z,32.40
2022-10-12T13:54:00.844Z,32.80
2022-10-12T13:56:32.178Z,31.90
2022-10-12T13:59:06.690Z,31.00
2022-10-12T14:01:55.029Z,30.50
2022-10-12T14:04:24.643Z,29.40
2022-10-12T14:07:00.128Z,28.00
2022-10-12T14:09:43.770Z,26.70
2022-10-12T14:12:15.053Z,26.00
2022-10-12T14:14:47.501Z,26.10
2022-10-12T14:17:18.920Z,26.40
2022-10-12T14:19:50.023Z,27.20
2022-10-12T14:22:24.630Z,27.80
2022-10-12T14:24:59.544Z,28.40
2022-10-12T14:27:30.876Z,29.00
2022-10-12T14:30:06.781Z,29.40
2022-10-12T14:32:42.555Z,29.10
2022-10-12T14:35:28.516Z,29.30
2022-10-12T14:37:59.508Z,29.10
2022-10-12T14:40:39.561Z,28.90
2022-10-12T14:43:24.626Z,29.20
2022-10-12T14:45:54.581Z,29.10
2022-10-12T14:48:24.365Z,29.10
2022-10-12T14:50:53.370Z,28.90
2022-10-12T14:53:22.851Z,29.00
2022-10-12T14:55:54.524Z,28.40
2022-10-12T14:58:26.243Z,28.10
2022-10-12T15:00:55.254Z,27.80
2022-10-12T15:03:24.397Z,27.40
2022-10-12T15:05:54.224Z,27.20
2022-10-12T15:08:24.118Z,26.50
2022-10-12T15:10:55.698Z,26.00
2022-10-12T15:13:29.254Z,24.80
2022-10-12T15:16:00.779Z,24.10
2022-10-12T15:18:29.779Z,23.50
2022-10-12T15:20:58.424Z,23.00
2022-10-12T15:23:27.251Z,22.60
2022-10-12T15:25:58.484Z,22.00
2022-10-12T15:28:30.277Z,21.60
2022-10-12T15:31:17.024Z,21.30
2022-10-12T15:33:47.308Z,20.70
2022-10-12T15:36:16.126Z,20.20
2022-10-12T15:38:45.166Z,20.00
2022-10-12T15:41:19.923Z,20.00
2022-10-12T15:43:50.338Z,19.90
2022-10-12T15:46:19.371Z,19.80
2022-10-12T15:48:48.112Z,19.60
2022-10-12T15:51:20.068Z,19.50
2022-10-12T15:53:48.847Z,19.30
2022-10-12T15:56:19.451Z,19.00
2022-10-12T15:58:49.853Z,18.80
2022-10-12T16:01:21.284Z,18.60
2022-10-12T16:03:50.296Z,18.40
2022-10-12T16:06:19.031Z,18.20
2022-10-12T16:08:47.868Z,17.90
2022-10-12T16:11:18.765Z,17.80
2022-10-12T16:13:56.324Z,17.60
2022-10-12T16:16:25.700Z,17.50
2022-10-12T16:18:54.554Z,17.30
2022-10-12T16:21:23.433Z,17.00
2022-10-12T16:23:52.301Z,16.80
2022-10-12T16:26:20.995Z,16.70
2022-10-12T16:28:51.253Z,16.70
2022-10-12T16:31:20.030Z,16.50
2022-10-12T16:33:48.882Z,16.30
2022-10-12T16:36:19.330Z,16.10
2022-10-12T16:38:48.001Z,16.00
2022-10-12T16:41:19.063Z,15.90
2022-10-12T16:43:47.887Z,15.70
2022-10-12T16:46:18.572Z,15.60
2022-10-12T16:48:47.306Z,15.50
2022-10-12T16:51:16.559Z,15.40
2022-10-12T16:53:45.223Z,15.20
2022-10-12T16:56:13.943Z,15.10
2022-10-12T16:58:43.824Z,15.10
2022-10-12T17:01:13.786Z,15.00
2022-10-12T17:03:44.238Z,14.80
2022-10-12T17:06:13.067Z,14.70
2022-10-12T17:08:41.776Z,14.60
2022-10-12T17:11:12.238Z,14.60
2022-10-12T17:13:46.582Z,14.50
2022-10-12T17:16:36.814Z,14.40
2022-10-12T17:19:08.809Z,14.40
2022-10-12T17:21:42.355Z,14.30
2022-10-12T17:24:14.530Z,14.20
2022-10-12T17:26:43.706Z,14.20
2022-10-12T17:29:15.869Z,14.00
2022-10-12T17:31:46.602Z,13.90
2022-10-12T17:34:20.864Z,13.80
2022-10-12T17:36:51.728Z,13.60
2022-10-12T17:39:22.457Z,13.60
2022-10-12T17:42:00.641Z,13.50
2022-10-12T17:44:29.957Z,13.40
2022-10-12T17:46:59.627Z,13.30
2022-10-12T17:49:31.862Z,13.20
2022-10-12T17:52:01.300Z,13.20
2022-10-12T17:54:30.570Z,13.10
2022-10-12T17:57:00.612Z,13.10
2022-10-12T17:59:30.286Z,13.00
2022-10-12T18:01:59.368Z,12.90
2022-10-12T18:04:30.115Z,12.80
2022-10-12T18:07:00.152Z,12.80
2022-10-12T18:09:29.883Z,12.70
2022-10-12T18:11:59.404Z,12.60
2022-10-12T18:14:28.392Z,12.50
2022-10-12T18:16:59.377Z,12.50
2022-10-12T18:19:30.197Z,12.30
2022-10-12T18:21:59.147Z,12.30
2022-10-12T18:24:28.447Z,12.20
2022-10-12T18:26:57.369Z,12.10
2022-10-12T18:29:26.719Z,11.90
2022-10-12T18:31:56.061Z,11.90
2022-10-12T18:34:25.373Z,11.90
2022-10-12T18:36:56.323Z,11.80
2022-10-12T18:39:25.647Z,11.80
2022-10-12T18:41:55.292Z,11.80
2022-10-12T18:44:24.593Z,11.80
2022-10-12T18:46:55.409Z,11.60
2022-10-12T18:49:24.560Z,11.50
2022-10-12T18:51:54.775Z,11.50
2022-10-12T18:54:24.095Z,11.60
2022-10-12T18:56:53.751Z,11.40
2022-10-12T18:59:23.064Z,11.40
2022-10-12T19:01:52.590Z,11.40
2022-10-12T19:04:22.021Z,11.30
2022-10-12T19:06:56.968Z,11.30
2022-10-12T19:09:29.168Z,11.30
2022-10-12T19:11:58.404Z,11.20
2022-10-12T19:14:27.971Z,11.20
2022-10-12T19:16:57.651Z,11.10
2022-10-12T19:19:26.773Z,11.00
2022-10-12T19:21:56.322Z,11.00
2022-10-12T19:24:25.528Z,10.90
2022-10-12T19:26:56.212Z,10.90
2022-10-12T19:29:25.160Z,10.90
2022-10-12T19:31:54.650Z,10.80
2022-10-12T19:34:26.401Z,10.80
2022-10-12T19:36:55.895Z,10.70
2022-10-12T19:39:27.679Z,10.70
2022-10-12T19:41:58.359Z,10.70
2022-10-12T19:44:27.630Z,10.70
2022-10-12T19:47:01.621Z,10.60
2022-10-12T19:49:35.773Z,10.50
2022-10-12T19:52:07.657Z,10.50
2022-10-12T19:54:36.926Z,10.50
2022-10-12T19:57:07.885Z,10.50
2022-10-12T19:59:39.020Z,10.40
2022-10-12T20:02:10.178Z,10.30
2022-10-12T20:04:39.367Z,10.30
2022-10-12T20:07:08.683Z,10.30
2022-10-12T20:09:38.192Z,10.20
2022-10-12T20:12:08.865Z,10.20
2022-10-12T20:14:37.770Z,10.00
2022-10-12T20:17:07.017Z,10.00
2022-10-12T20:19:35.963Z,10.10
2022-10-12T20:22:04.939Z,10.00
2022-10-12T20:24:33.921Z,10.00
2022-10-12T20:27:03.225Z,10.00
2022-10-12T20:29:35.905Z,10.00
2022-10-12T20:32:04.815Z,9.90
2022-10-12T20:34:33.738Z,9.90
2022-10-12T20:37:02.805Z,9.80
2022-10-12T20:39:31.914Z,9.70
2022-10-12T20:42:00.861Z,9.70
2022-10-12T20:44:29.619Z,9.70
2022-10-12T20:47:02.377Z,9.60
2022-10-12T20:49:31.436Z,9.60
2022-10-12T20:52:00.368Z,9.50
2022-10-12T20:54:30.177Z,9.50
2022-10-12T20:57:00.743Z,9.50
2022-10-12T20:59:29.675Z,9.40
2022-10-12T21:02:00.129Z,9.40
2022-10-12T21:04:32.577Z,9.30
2022-10-12T21:07:03.576Z,9.30
2022-10-12T21:09:32.309Z,9.20
2022-10-12T21:12:01.218Z,9.10
2022-10-12T21:14:29.853Z,9.20
2022-10-12T21:17:00.063Z,9.10
2022-10-12T21:19:28.841Z,9.00
2022-10-12T21:21:57.564Z,9.00
2022-10-12T21:24:26.327Z,9.00
2022-10-12T21:26:55.457Z,9.00
2022-10-12T21:29:24.144Z,9.00
2022-10-12T21:31:53.002Z,9.00
2022-10-12T21:34:24.157Z,9.00
2022-10-12T21:36:53.101Z,8.90
2022-10-12T21:39:22.048Z,8.80
2022-10-12T21:41:50.750Z,8.70
2022-10-12T21:44:19.773Z,8.70
2022-10-12T21:46:48.507Z,8.80
2022-10-12T21:49:17.237Z,8.80
2022-10-12T21:51:47.440Z,8.80
2022-10-12T21:54:16.142Z,8.80
2022-10-12T21:56:45.012Z,8.80
2022-10-12T21:59:13.709Z,8.80
2022-10-12T22:01:42.889Z,8.80
2022-10-12T22:04:14.688Z,8.70
2022-10-12T22:06:44.805Z,8.70
2022-10-12T22:09:19.494Z,8.70
2022-10-12T22:11:48.438Z,8.60
2022-10-12T22:14:19.052Z,8.60
2022-10-12T22:16:48.008Z,8.60
2022-10-12T22:19:19.130Z,8.60
2022-10-12T22:21:48.682Z,8.60
2022-10-12T22:24:19.155Z,8.60
2022-10-12T22:26:47.957Z,8.50
2022-10-12T22:29:16.834Z,8.50
2022-10-12T22:31:46.617Z,8.50
2022-10-12T22:34:15.346Z,8.40
2022-10-12T22:36:44.421Z,8.30
2022-10-12T22:39:13.052Z,8.30
2022-10-12T22:41:43.158Z,8.30
2022-10-12T22:44:11.829Z,8.30
2022-10-12T22:46:40.502Z,8.30
2022-10-12T22:49:09.095Z,8.30
2022-10-12T22:51:39.629Z,8.30
2022-10-12T22:54:08.644Z,8.30
2022-10-12T22:56:37.366Z,8.20
2022-10-12T22:59:07.976Z,8.20
2022-10-12T23:01:36.950Z,8.10
2022-10-12T23:04:05.957Z,8.10
2022-10-12T23:06:34.697Z,8.10
2022-10-12T23:09:04.308Z,8.10
2022-10-12T23:11:32.971Z,8.10
2022-10-12T23:14:01.644Z,8.00
2022-10-12T23:16:33.360Z,7.90
2022-10-12T23:19:03.811Z,7.90
2022-10-12T23:21:33.930Z,7.90
2022-10-12T23:24:05.269Z,7.90
2022-10-12T23:26:34.110Z,7.80
2022-10-12T23:29:02.820Z,7.90
2022-10-12T23:31:35.822Z,7.80
2022-10-12T23:34:07.014Z,7.80
2022-10-12T23:36:36.311Z,7.70
2022-10-12T23:39:06.653Z,7.70
2022-10-12T23:41:35.305Z,7.80
2022-10-12T23:44:03.963Z,7.80
2022-10-12T23:46:34.073Z,7.70
2022-10-12T23:49:02.818Z,7.60
2022-10-12T23:51:31.524Z,7.50
2022-10-12T23:54:00.222Z,7.50
2022-10-12T23:56:29.319Z,7.50
2022-10-12T23:58:58.519Z,7.50
